Tiempo atmosférico en la estación meteorológica de Sigüenza, Guadalajara (1044 m.)



Fecha
DESCASC
Temp. máxima en grados centígrados (hora)
DESCASC
Temp. mínima en grados centígrados (hora)
DESCASC
Temp. media en grados centígrados
DESCASC
Racha de viento máxima en m/sg (hora)
DESCASC
Velocidad máxima media en intervalos de 10 minutos(hora)
DESCASC
Precipitaciones diarias en mm
DESCASC
Precipitaciones de 00:00 a 06:00 en mm
DESCASC
Precipitaciones de 06:00 a 12:00 en mm
DESCASC
Precipitaciones de 12:00 a 18:00 en mm
DESCASC
Precipitaciones de 18:00 a 24:00 en mm
DESCASC
22-04-2019 13.9 (19:00) 4.2 (07:20) 9 4.72 (00:40) 2.5 (02:00) 0.8 0.8 0 0 0
21-04-2019 8.4 (18:10) 5.3 (05:10) 6.8 9.17 (11:10) 4.17 (13:00) 0 0 0 0 0
20-04-2019 15.8 (15:00) 7.4 (04:30) 11.6 15.56 (13:30) 6.94 (12:00) 0 0 0 0 0
19-04-2019 12.7 (18:00) 6.2 (04:10) 9.4 18.89 (20:00) 8.06 (18:20) 20.6 10 4.6 6 0
18-04-2019 14.4 (00:00) 6.5 (00:00) 10.4 8.33 (03:10) 4.72 (03:10) 47.6 1.8 21.2 13 11.6
17-04-2019 23 (17:00) 4.7 (00:00) 13.8 10.83 (14:10) 6.39 (14:50) 0 0 0 0 0
16-04-2019 19.4 (16:30) 1.5 (00:00) 10.4 7.78 (18:40) 3.89 (18:50) 0 0 0 0 0
15-04-2019 22 (17:00) 5.8 (00:00) 13.9 14.44 (19:10) 8.06 (16:30) 0.2 0 0 0 0.2
14-04-2019 21.2 (16:30) 0.6 (00:00) 10.9 6.94 (11:20) 3.33 (10:40) 0 0 0 0 0
13-04-2019 19.8 (17:00) -5.3 (-00:0) 7.2 8.61 (11:30) 3.33 (11:10) 0 0 0 0 0
12-04-2019 15.2 (17:00) -3.1 (-00:0) 6 10.56 (14:40) 4.17 (10:10) 0 0 0 0 0
11-04-2019 12 (15:50) -1.1 (-00:0) 5.4 10.56 (18:50) 4.72 (19:00) 0 0 0 0 0
10-04-2019 11.8 (16:00) 1.4 (00:00) 6.6 9.17 (17:50) 5 (19:10) 2 0 1.6 0.2 0.2
09-04-2019 9.4 (14:10) -0.3 (00:00) 4.5 11.11 (14:30) 5.83 (14:30) 3.4 0.4 0 3 0
08-04-2019 13 (14:20) 4.5 (00:00) 8.8 9.44 (13:30) 5.83 (13:40) 13 0.2 1.2 2 9.6
07-04-2019 10.5 (14:40) 0.6 (00:00) 5.6 9.72 (20:10) 4.72 (11:10) 0.8 0.2 0 0 0.6
06-04-2019 5.9 (18:00) 0.8 (00:00) 3.4 10 (10:10) 5.83 (10:10) 4.8 2.8 0.4 1.6 0
05-04-2019 6.8 (02:40) 0.6 (00:00) 3.7 15 (03:20) 7.22 (03:20) 8.6 0.6 2.4 3 2.6
04-04-2019 11.6 (16:50) -7.7 (-00:0) 2 10.28 (17:00) 5.28 (16:40) 0 0 0 0 0
03-04-2019 11.5 (15:00) -1.6 (-00:0) 4.9 10.83 (14:00) 4.44 (19:10) 0 0 0 0 0
02-04-2019 15.7 (16:10) 3.5 (00:00) 9.6 7.78 (16:50) 4.72 (16:50) 2.6 1.6 0 0 1
01-04-2019 12.9 (16:50) 5 (00:00) 8.9 5.83 (12:40) 3.33 (16:20) 0.2 0.2 0 0 0
31-03-2019 11.2 (12:40) 1.9 (00:00) 6.5 8.33 (18:10) 3.89 (17:00) 1.4 0 0 1.2 0.2
30-03-2019 17.7 (14:50) -4.8 (-00:0) 6.5 8.61 (13:20) 3.61 (18:00) 0 0 0 0 0
29-03-2019 16.9 (15:50) -4.6 (-00:0) 6.1 10.83 (14:40) 4.72 (15:30) 0 0 0 0 0
28-03-2019 18.7 (15:40) -5.6 (-00:0) 6.6 6.11 (11:30) 3.06 (11:30) 0 0 0 0 0
27-03-2019 17.3 (15:20) -6.3 (-00:0) 5.5 7.78 (15:40) 3.61 (17:30) 0 0 0 0 0
26-03-2019 16.1 (15:10) -1 (-00:0) 7.6 10.56 (16:40) 5.28 (16:40) 0 0 0 0 0
25-03-2019 16.9 (16:10) -3.6 (-00:0) 6.6 10.28 (19:30) 4.72 (18:00) 0 0 0 0 0

Gráficas

Temp. máximas Temp. mínimas Temp. medias Precipitaciones Rachas de viento máximas Velocidades máximas media en intervalos de 10 minutos

Datos horarios

Fecha y hora oficial Temperatura (ºC) Velocidad del viento (km/h) Dirección del viento Racha (km/h) Dirección de racha Precipitación (mm) Presión (hPa) Tendencia (hPa) Humedad (%)
2019-04-23 23:00:00 4.7 10 Sudoeste 32 Sudoeste 0.2 -- -- 88
2019-04-23 22:00:00 5.1 17 Sudoeste 33 Sur 0 -- -- 81
2019-04-23 21:00:00 5.8 10 Sudoeste 34 Sur 0 -- -- 76
2019-04-23 20:00:00 6.7 11 Sudoeste 35 Sur 0 -- -- 67
2019-04-23 19:00:00 6.9 14 Sudoeste 41 Sur 0.2 -- -- 80
2019-04-23 18:00:00 9.2 18 Sudoeste 37 Sur 0 -- -- 65
2019-04-23 17:00:00 9.1 21 Sur 42 Sur 0 -- -- 73
2019-04-23 16:00:00 6.1 15 Sudoeste 43 Sudoeste 0.2 -- -- 88
2019-04-23 15:00:00 8.1 21 Sudoeste 36 Sudoeste 0.4 -- -- 86
2019-04-23 14:00:00 8.3 18 Sur 31 Sudoeste 1.2 -- -- 83
2019-04-23 13:00:00 8.2 16 Sur 34 Sudoeste 1.2 -- -- 86
2019-04-23 12:00:00 8.3 14 Sur 49 Sudoeste 0.6 -- -- 85
2019-04-23 11:00:00 10.3 23 Sur 35 Sur 0 -- -- 74
2019-04-23 10:00:00 10 20 Sur 33 Sur 0 -- -- 80
2019-04-23 09:00:00 8.3 15 Sur 37 Sur 0 -- -- 86
2019-04-23 08:00:00 8.1 11 Sur 29 Sur 0 -- -- 85
2019-04-23 07:00:00 8 6 Sudoeste 19 Sudoeste 0 -- -- 85
2019-04-23 06:00:00 8.6 14 Sur 28 Sur 0 -- -- 83
2019-04-23 05:00:00 8.3 4 Sur 19 Sur 0 -- -- 85
2019-04-23 04:00:00 8.6 9 Sudoeste 18 Sur 0 -- -- 82
2019-04-23 03:00:00 8.6 6 Sudoeste 21 Sudoeste 0 -- -- 82
2019-04-23 02:00:00 7.6 2 Este 6 Nordeste 0 -- -- 86
2019-04-23 01:00:00 8.6 2 Sudoeste 9 Norte 0 -- -- 83
2019-04-23 00:00:00 9.1 2 Sudeste 6 Este 0 -- -- 83
2019-04-22 23:00:00 9.5 4 Norte 5 Sur 0 -- -- 80
2019-04-22 22:00:00 10.3 3 Oeste 12 Oeste 0 -- -- 75
2019-04-22 21:00:00 11.2 6 Sur 15 Sur 0 -- -- 67
2019-04-22 20:00:00 12.9 6 Sudoeste 17 Sudoeste 0 -- -- 59
2019-04-22 19:00:00 13.8 4 Este 9 Este 0 -- -- 56
2019-04-22 18:00:00 13.4 4 Sur 9 Sur 0 -- -- 57
2019-04-22 17:00:00 13.4 3 Sur 10 Este 0 -- -- 54
2019-04-22 16:00:00 13.4 5 Nordeste 12 Este 0 -- -- 56
2019-04-22 15:00:00 13.2 4 Norte 10 Norte 0 -- -- 53
2019-04-22 14:00:00 12.9 3 Nordeste 12 Este 0 -- -- 57
2019-04-22 13:00:00 12.4 4 Norte 14 Nordeste 0 -- -- 58
2019-04-22 12:00:00 11.7 3 Este 13 Nordeste 0 -- -- 64
2019-04-22 11:00:00 11 6 Este 14 Nordeste 0 -- -- 66
2019-04-22 10:00:00 8.4 5 Nordeste 9 Nordeste 0 -- -- 82
2019-04-22 09:00:00 6.1 2 Nordeste 4 Nordeste 0 -- -- 93
2019-04-22 08:00:00 4.7 2 Sudoeste 5 Este 0 -- -- 96
2019-04-22 07:00:00 4.8 0 Calma 3 Noroeste 0 -- -- 95
2019-04-22 06:00:00 5.4 2 Norte 5 Sudoeste 0 -- -- 96
2019-04-22 05:00:00 5.7 3 Sur 6 Sudoeste 0 -- -- 94
2019-04-22 04:00:00 6 0 Calma 6 Nordeste 0 -- -- 94
2019-04-22 03:00:00 6.1 4 Nordeste 15 Nordeste 0.2 -- -- 94
2019-04-22 02:00:00 6.2 9 Nordeste 17 Nordeste 0.4 -- -- 93
2019-04-22 01:00:00 6.4 8 Nordeste 17 Nordeste 0.2 -- -- 92
2019-04-22 00:00:00 6.7 8 Nordeste 20 Nordeste 0 -- -- 88
2019-04-21 23:00:00 6.8 9 Nordeste 22 Nordeste 0 -- -- 88
2019-04-21 22:00:00 6.6 8 Nordeste 22 Nordeste 0 -- -- 88
2019-04-21 21:00:00 7.3 8 Nordeste 23 Nordeste 0 -- -- 84
2019-04-21 20:00:00 8 12 Nordeste 30 Nordeste 0 -- -- 76
2019-04-21 19:00:00 8.3 12 Nordeste 29 Nordeste 0 -- -- 72
2019-04-21 18:00:00 8.3 9 Nordeste 24 Nordeste 0 -- -- 75
2019-04-21 17:00:00 7.9 13 Nordeste 28 Nordeste 0 -- -- 76
2019-04-21 16:00:00 7.9 13 Nordeste 28 Nordeste 0 -- -- 76
2019-04-21 15:00:00 7.4 11 Nordeste 26 Nordeste 0 -- -- 80
2019-04-21 14:00:00 7.4 14 Nordeste 30 Nordeste 0 -- -- 78
2019-04-21 13:00:00 7.3 15 Nordeste 33 Nordeste 0 -- -- 78
2019-04-21 12:00:00 7.1 10 Nordeste 33 Nordeste 0 -- -- 81
2019-04-21 11:00:00 6.9 13 Nordeste 28 Nordeste 0 -- -- 83
2019-04-21 10:00:00 6.4 15 Nordeste 30 Nordeste 0 -- -- 86
2019-04-21 09:00:00 6.1 10 Nordeste 26 Nordeste 0 -- -- 88
2019-04-21 08:00:00 5.8 11 Nordeste 25 Nordeste 0 -- -- 90
2019-04-21 07:00:00 5.6 9 Nordeste 24 Nordeste 0 -- -- 90
2019-04-21 06:00:00 5.4 10 Nordeste 22 Nordeste 0 -- -- 89
2019-04-21 05:00:00 5.4 8 Nordeste 23 Nordeste 0 -- -- 84
2019-04-21 04:00:00 5.7 9 Nordeste 26 Nordeste 0 -- -- 80
2019-04-21 03:00:00 6.3 9 Nordeste 22 Este 0 -- -- 78
2019-04-21 02:00:00 6.6 8 Nordeste 27 Nordeste 0 -- -- 79
2019-04-21 01:00:00 7.2 10 Nordeste 23 Nordeste 0 -- -- 74
2019-04-21 00:00:00 7.7 12 Nordeste 25 Nordeste 0 -- -- 74
2019-04-20 23:00:00 7.5 6 Nordeste 22 Este 0 -- -- 75
2019-04-20 22:00:00 8.3 8 Este 29 Este 0 -- -- 69
2019-04-20 21:00:00 9.5 10 Este 32 Este 0 -- -- 64
2019-04-20 20:00:00 12.5 12 Nordeste 32 Este 0 -- -- 49
2019-04-20 19:00:00 13.8 14 Nordeste 41 Nordeste 0 -- -- 45
2019-04-20 18:00:00 14.5 18 Nordeste 44 Nordeste 0 -- -- 42
2019-04-20 17:00:00 14.1 18 Nordeste 43 Nordeste 0 -- -- 46
2019-04-20 16:00:00 14.4 18 Nordeste 41 Nordeste 0 -- -- 45
2019-04-20 15:00:00 15.6 18 Nordeste 44 Nordeste 0 -- -- 44
2019-04-20 14:00:00 14.7 21 Nordeste 56 Nordeste 0 -- -- 47
2019-04-20 13:00:00 13 24 Nordeste 51 Nordeste 0 -- -- 50
2019-04-20 12:00:00 13.1 25 Nordeste 49 Nordeste 0 -- -- 53
2019-04-20 11:00:00 11.1 22 Nordeste 45 Nordeste 0 -- -- 58
2019-04-20 10:00:00 10.6 19 Nordeste 49 Nordeste 0 -- -- 61
2019-04-20 09:00:00 9.6 17 Nordeste 38 Nordeste 0 -- -- 66
2019-04-20 08:00:00 8.6 13 Nordeste 29 Norte 0 -- -- 71
2019-04-20 07:00:00 8.5 12 Nordeste 28 Nordeste 0 -- -- 70
2019-04-20 06:00:00 7.8 10 Nordeste 36 Nordeste 0 -- -- 75
2019-04-20 05:00:00 7.7 12 Nordeste 32 Nordeste 0 -- -- 76
2019-04-20 04:00:00 7.9 15 Nordeste 33 Nordeste 0 -- -- 75
2019-04-20 03:00:00 8.9 13 Nordeste 38 Nordeste 0 -- -- 69
2019-04-20 02:00:00 9 9 Nordeste 30 Nordeste 0 -- -- 68
2019-04-20 01:00:00 9.3 14 Nordeste 34 Nordeste 0 -- -- 66
2019-04-20 00:00:00 9.6 15 Nordeste 39 Nordeste 0 -- -- 64
2019-04-19 23:00:00 10.2 19 Nordeste 41 Nordeste 0 -- -- 59
2019-04-19 22:00:00 10.7 19 Nordeste 51 Nordeste 0 -- -- 59
2019-04-19 21:00:00 11.1 20 Nordeste 62 Nordeste 0 -- -- 57
2019-04-19 20:00:00 11.9 29 Nordeste 68 Nordeste 0 -- -- 55
2019-04-19 19:00:00 12 27 Nordeste 65 Nordeste 0 -- -- 62
2019-04-19 18:00:00 12.7 28 Nordeste 57 Nordeste 0 -- -- 61
2019-04-19 17:00:00 12.2 23 Nordeste 56 Nordeste 0 -- -- 69
2019-04-19 16:00:00 10.2 24 Nordeste 53 Nordeste 4.4 -- -- 79
2019-04-19 15:00:00 9.1 16 Nordeste 35 Nordeste 0.6 -- -- 88
2019-04-19 14:00:00 7.7 3 Norte 10 Norte 0.4 -- -- 94
2019-04-19 13:00:00 8.2 5 Norte 16 Nordeste 0.6 -- -- 94
2019-04-19 12:00:00 8.2 4 Nordeste 11 Nordeste 0.6 -- -- 93
2019-04-19 11:00:00 7.5 4 Nordeste 13 Este 0.6 -- -- 91
2019-04-19 10:00:00 7.2 6 Nordeste 20 Nordeste 0.6 -- -- 90
2019-04-19 09:00:00 7.2 10 Nordeste 20 Nordeste 0.8 -- -- 90
2019-04-19 08:00:00 7.1 6 Nordeste 15 Nordeste 1 -- -- 91
2019-04-19 07:00:00 6.8 6 Nordeste 12 Nordeste 1 -- -- 95
2019-04-19 06:00:00 6.7 5 Nordeste 11 Nordeste 1.4 -- -- 95
2019-04-19 05:00:00 6.3 5 Nordeste 12 Norte 1.4 -- -- 96
2019-04-19 04:00:00 6.3 6 Nordeste 23 Nordeste 1.6 -- -- 94
2019-04-19 03:00:00 6.6 10 Nordeste 19 Nordeste 1.8 -- -- 92
2019-04-19 02:00:00 6.6 11 Nordeste 27 Nordeste 2 -- -- 93
2019-04-19 01:00:00 6.7 12 Nordeste 24 Nordeste 1.8 -- -- 93
2019-04-19 00:00:00 6.6 8 Nordeste 13 Nordeste 2.2 -- -- 95
2019-04-18 23:00:00 6.5 4 Norte 10 Sur 2.2 -- -- 95
2019-04-18 22:00:00 6.7 3 Sudeste 15 Norte 2.2 -- -- 95
2019-04-18 21:00:00 6.9 5 Nordeste 14 Norte 1.8 -- -- 94
2019-04-18 20:00:00 7 5 Nordeste 12 Nordeste 1.6 -- -- 94
2019-04-18 19:00:00 7.1 7 Nordeste 15 Nordeste 1.6 -- -- 92
2019-04-18 18:00:00 7.5 5 Nordeste 12 Nordeste 2 -- -- 92
2019-04-18 17:00:00 7.7 4 Nordeste 12 Oeste 2.4 -- -- 90
2019-04-18 16:00:00 7.5 4 Sudoeste 17 Oeste 2.6 -- -- 94
2019-04-18 15:00:00 7.3 7 Oeste 17 Noroeste 1.8 -- -- 94
2019-04-18 14:00:00 7.2 5 Oeste 18 Oeste 1.8 -- -- 94
2019-04-18 13:00:00 7 7 Oeste 18 Oeste 2.4 -- -- 93
2019-04-18 12:00:00 7.9 5 Oeste 18 Noroeste 0.4 -- -- 91
2019-04-18 11:00:00 7.7 11 Noroeste 24 Noroeste 1.4 -- -- 90
2019-04-18 10:00:00 7.5 4 Noroeste 17 Norte 5.8 -- -- 91
2019-04-18 09:00:00 8 5 Sudoeste 21 Sur 5.4 -- -- 91
2019-04-18 08:00:00 8.8 5 Sudeste 15 Sudeste 3.8 -- -- 89
2019-04-18 07:00:00 9.3 3 Sur 15 Sur 4.4 -- -- 91
2019-04-18 06:00:00 9.6 3 Oeste 7 Sur 1.6 -- -- 88
2019-04-18 05:00:00 10.3 3 Este 14 Sudeste 0.2 -- -- 83
2019-04-18 04:00:00 10.7 6 Sur 30 Sur 0 -- -- 81
2019-04-18 03:00:00 12.1 14 Sur 29 Sur 0 -- -- 69
2019-04-18 02:00:00 12.6 11 Sur 26 Sur 0 -- -- 66
2019-04-18 01:00:00 13.3 8 Sur 30 Sur 0 -- -- 65
2019-04-18 00:00:00 14.4 18 Sur 31 Sur 0 -- -- 60
2019-04-17 23:00:00 15.5 9 Sur 24 Sudeste 0 -- -- 54
2019-04-17 22:00:00 16.6 10 Sur 29 Sur 0 -- -- 46
2019-04-17 21:00:00 18 13 Sur 29 Sur 0 -- -- 37
2019-04-17 20:00:00 19.5 9 Sur 22 Sudeste 0 -- -- 32
2019-04-17 19:00:00 21 14 Sur 27 Sur 0 -- -- 26
2019-04-17 18:00:00 22.4 12 Sudeste 31 Sur 0 -- -- 24
2019-04-17 17:00:00 22.9 12 Sudeste 27 Sur 0 -- -- 25
2019-04-17 16:00:00 21.3 12 Sur 30 Sudoeste 0 -- -- 29
2019-04-17 15:00:00 21.4 17 Sur 39 Sur 0 -- -- 30
2019-04-17 14:00:00 20.1 20 Sur 36 Sur 0 -- -- 36
2019-04-17 13:00:00 18.3 15 Sudoeste 36 Sudoeste 0 -- -- 41
2019-04-17 12:00:00 15.6 10 Sur 19 Sur 0 -- -- 51
2019-04-17 11:00:00 13.3 8 Sudeste 21 Sur 0 -- -- 55
2019-04-17 10:00:00 10.4 5 Sudoeste 13 Oeste 0 -- -- 72
2019-04-17 09:00:00 6.9 2 Este 6 Nordeste 0 -- -- 88
2019-04-17 08:00:00 5.2 0 Calma 8 Norte 0 -- -- 91
2019-04-17 07:00:00 4.9 2 Este 6 Norte 0 -- -- 90
2019-04-17 06:00:00 5.6 4 Nordeste 7 Norte 0 -- -- 88
2019-04-17 05:00:00 6.2 2 Este 9 Norte 0 -- -- 85
2019-04-17 04:00:00 7.5 3 Este 10 Oeste 0 -- -- 81
2019-04-17 03:00:00 9.2 4 Sudoeste 22 Sur 0 -- -- 77
2019-04-17 02:00:00 9.5 7 Sur 18 Sur 0 -- -- 77
2019-04-17 01:00:00 5.7 3 Este 11 Norte 0 -- -- 78
2019-04-17 00:00:00 6.1 9 Nordeste 14 Norte 0 -- -- 70
2019-04-16 23:00:00 6.5 5 Nordeste 11 Nordeste 0 -- -- 65
2019-04-16 22:00:00 8.5 3 Nordeste 9 Norte 0 -- -- 54
2019-04-16 21:00:00 11.8 6 Nordeste 10 Nordeste 0 -- -- 40
2019-04-16 20:00:00 16.2 3 Sudoeste 19 Sudoeste 0 -- -- 27
2019-04-16 19:00:00 17.8 11 Sur 28 Sudoeste 0 -- -- 27
2019-04-16 18:00:00 18.8 13 Sur 24 Sudoeste 0 -- -- 28
2019-04-16 17:00:00 19 11 Sur 25 Sudoeste 0 -- -- 26
2019-04-16 16:00:00 18.8 8 Sudoeste 25 Sudoeste 0 -- -- 29
2019-04-16 15:00:00 18.4 9 Sur 25 Sur 0 -- -- 28
2019-04-16 14:00:00 17.2 5 Sudoeste 26 Sudoeste 0 -- -- 38
2019-04-16 13:00:00 15.5 5 Norte 17 Este 0 -- -- 43
2019-04-16 12:00:00 14 4 Sur 14 Este 0 -- -- 47
2019-04-16 11:00:00 11.5 7 Nordeste 18 Nordeste 0 -- -- 67
2019-04-16 10:00:00 8.8 5 Nordeste 13 Norte 0 -- -- 79
2019-04-16 09:00:00 5.3 5 Nordeste 11 Norte 0 -- -- 93
2019-04-16 08:00:00 2.1 5 Norte 8 Norte 0 -- -- 96
2019-04-16 07:00:00 1.8 5 Nordeste 9 Nordeste 0 -- -- 94
2019-04-16 06:00:00 2.9 2 Este 9 Nordeste 0 -- -- 92
2019-04-16 05:00:00 4.2 3 Oeste 10 Este 0 -- -- 89
2019-04-16 04:00:00 6.2 2 Este 13 Noroeste 0 -- -- 82
2019-04-16 03:00:00 7.4 2 Sudoeste 15 Noroeste 0 -- -- 77
2019-04-16 02:00:00 7.6 4 Noroeste 14 Noroeste 0 -- -- 75
2019-04-16 01:00:00 7.9 2 Sudoeste 9 Oeste 0 -- -- 70
2019-04-16 00:00:00 9.2 0 Calma 21 Noroeste 0 -- -- 73
2019-04-15 23:00:00 10.3 3 Norte 21 Noroeste 0.2 -- -- 71
2019-04-15 22:00:00 11.2 10 Noroeste 30 Noroeste 0 -- -- 64
2019-04-15 21:00:00 13.2 12 Noroeste 39 Noroeste 0 -- -- 61
2019-04-15 20:00:00 18.5 14 Sudoeste 52 Sudoeste 0 -- -- 32
2019-04-15 19:00:00 20.3 17 Sudoeste 48 Sur 0 -- -- 29
2019-04-15 18:00:00 20.3 19 Sudoeste 47 Sudoeste 0 -- -- 36
2019-04-15 17:00:00 21.1 24 Sudoeste 50 Sur 0 -- -- 35
2019-04-15 16:00:00 20.4 24 Sur 46 Sur 0 -- -- 41
2019-04-15 15:00:00 19.1 18 Sur 34 Sudoeste 0 -- -- 54
2019-04-15 14:00:00 18.3 19 Sudoeste 38 Sur 0 -- -- 55
2019-04-15 13:00:00 18.7 22 Sur 35 Sudoeste 0 -- -- 55
2019-04-15 12:00:00 18.3 19 Sur 33 Sur 0 -- -- 57
2019-04-15 11:00:00 16.4 18 Sur 30 Sur 0 -- -- 65
2019-04-15 10:00:00 13.4 6 Sur 16 Sur 0 -- -- 71
2019-04-15 09:00:00 9.5 5 Sudoeste 9 Sudoeste 0 -- -- 88
2019-04-15 08:00:00 7.4 2 Oeste 8 Norte 0 -- -- 90
2019-04-15 07:00:00 6.5 2 Este 8 Norte 0 -- -- 91
2019-04-15 06:00:00 5.8 2 Nordeste 5 Norte 0 -- -- 91
2019-04-15 05:00:00 6.1 2 Nordeste 8 Nordeste 0 -- -- 90
2019-04-15 04:00:00 6.6 3 Nordeste 9 Norte 0 -- -- 88
2019-04-15 03:00:00 6.6 4 Nordeste 10 Nordeste 0 -- -- 88
2019-04-15 02:00:00 6.3 4 Nordeste 8 Norte 0 -- -- 87
2019-04-15 01:00:00 7.1 5 Norte 8 Norte 0 -- -- 85
2019-04-15 00:00:00 8 7 Norte 11 Norte 0 -- -- 83
2019-04-14 23:00:00 9.5 4 Nordeste 8 Este 0 -- -- 78
2019-04-14 22:00:00 11.6 3 Nordeste 7 Nordeste 0 -- -- 71
2019-04-14 21:00:00 14.2 0 Calma 10 Norte 0 -- -- 61
2019-04-14 20:00:00 17.1 5 Norte 20 Noroeste 0 -- -- 51
2019-04-14 19:00:00 18.7 11 Noroeste 17 Noroeste 0 -- -- 47
2019-04-14 18:00:00 19.7 8 Noroeste 18 Norte 0 -- -- 44
2019-04-14 17:00:00 20.7 7 Sudoeste 19 Sudoeste 0 -- -- 41
2019-04-14 16:00:00 19.5 5 Sudoeste 19 Sudoeste 0 -- -- 45
2019-04-14 15:00:00 19 6 Sur 19 Sur 0 -- -- 47
2019-04-14 14:00:00 19.3 6 Oeste 20 Noroeste 0 -- -- 47
2019-04-14 13:00:00 18.5 6 Oeste 21 Noroeste 0 -- -- 49
2019-04-14 12:00:00 17.1 9 Oeste 25 Sudoeste 0 -- -- 53
2019-04-14 11:00:00 15.9 10 Sudoeste 24 Sudoeste 0 -- -- 58
2019-04-14 10:00:00 13.4 10 Sudoeste 19 Sudoeste 0 -- -- 70
2019-04-14 09:00:00 6.8 5 Sudoeste 11 Sudoeste 0 -- -- 73
2019-04-14 08:00:00 2.9 2 Norte 6 Nordeste 0 -- -- 83
2019-04-14 07:00:00 1.1 3 Este 6 Nordeste 0 -- -- 87
2019-04-14 06:00:00 1 0 Calma 6 Norte 0 -- -- 83
2019-04-14 05:00:00 0.9 3 Norte 6 Norte 0 -- -- 83
2019-04-14 04:00:00 0.7 3 Nordeste 6 Nordeste 0 -- -- 82
2019-04-14 03:00:00 0.8 2 Nordeste 7 Norte 0 -- -- 80
2019-04-14 02:00:00 1.2 5 Nordeste 6 Nordeste 0 -- -- 78
2019-04-14 01:00:00 2 4 Norte 7 Nordeste 0 -- -- 73
2019-04-14 00:00:00 3.2 3 Nordeste 7 Nordeste 0 -- -- 68
2019-04-13 23:00:00 5.1 3 Nordeste 8 Nordeste 0 -- -- 59
2019-04-13 22:00:00 7.9 2 Nordeste 7 Nordeste 0 -- -- 47
2019-04-13 21:00:00 10.9 0 Calma 16 Sudoeste 0 -- -- 34
2019-04-13 20:00:00 15.8 5 Sudoeste 21 Oeste 0 -- -- 20
2019-04-13 19:00:00 18.7 6 Oeste 26 Sur 0 -- -- 15
2019-04-13 18:00:00 18.8 9 Noroeste 22 Noroeste 0 -- -- 12
2019-04-13 17:00:00 19.8 6 Oeste 21 Noroeste 0 -- -- 10
2019-04-13 16:00:00 18.8 9 Noroeste 21 Norte 0 -- -- 9
2019-04-13 15:00:00 18.4 8 Noroeste 26 Noroeste 0 -- -- 9
2019-04-13 14:00:00 17.9 9 Noroeste 24 Noroeste 0 -- -- 11
2019-04-13 13:00:00 16.9 9 Noroeste 25 Noroeste 0 -- -- 10
2019-04-13 12:00:00 15.2 8 Norte 31 Norte 0 -- -- 11
2019-04-13 11:00:00 12.7 9 Noroeste 24 Noroeste 0 -- -- 17
2019-04-13 10:00:00 7.7 5 Sudoeste 16 Noroeste 0 -- -- 49
2019-04-13 09:00:00 -1 0 Calma 3 Sur 0 -- -- 89
2019-04-13 08:00:00 -5 0 Calma 4 Nordeste 0 -- -- 92
2019-04-13 07:00:00 -5 2 Norte 5 Nordeste 0 -- -- 93
2019-04-13 06:00:00 -4 3 Este 7 Norte 0 -- -- 90
2019-04-13 05:00:00 -3.2 3 Nordeste 6 Norte 0 -- -- 91
2019-04-13 04:00:00 -2.7 2 Norte 5 Norte 0 -- -- 91
2019-04-13 03:00:00 -1.7 0 Calma 7 Nordeste 0 -- -- 87
2019-04-13 02:00:00 -0.5 4 Nordeste 7 Norte 0 -- -- 85
2019-04-13 01:00:00 1.5 0 Calma 7 Este 0 -- -- 76
2019-04-13 00:00:00 4.4 2 Este 10 Noroeste 0 -- -- 65
2019-04-12 23:00:00 7.7 6 Noroeste 16 Noroeste 0 -- -- 47
2019-04-12 22:00:00 9.5 9 Noroeste 16 Noroeste 0 -- -- 41
2019-04-12 21:00:00 10.5 8 Noroeste 16 Noroeste 0 -- -- 39
2019-04-12 20:00:00 12.8 7 Noroeste 20 Norte 0 -- -- 36
2019-04-12 19:00:00 14.8 8 Noroeste 21 Norte 0 -- -- 29
2019-04-12 18:00:00 14.9 8 Norte 25 Noroeste 0 -- -- 27
2019-04-12 17:00:00 15.2 12 Noroeste 28 Noroeste 0 -- -- 28
2019-04-12 16:00:00 14.4 13 Norte 29 Norte 0 -- -- 29
2019-04-12 15:00:00 13.8 13 Noroeste 38 Noroeste 0 -- -- 34
2019-04-12 14:00:00 12.7 9 Norte 28 Norte 0 -- -- 36
2019-04-12 13:00:00 11.5 11 Noroeste 30 Norte 0 -- -- 41
2019-04-12 12:00:00 9.8 12 Norte 27 Norte 0 -- -- 45
2019-04-12 11:00:00 8 12 Noroeste 28 Norte 0 -- -- 53
2019-04-12 10:00:00 6.3 13 Norte 27 Noroeste 0 -- -- 64
2019-04-12 09:00:00 1.6 4 Norte 11 Sudoeste 0 -- -- 92
2019-04-12 08:00:00 -3 0 Calma 6 Norte 0 -- -- 95
2019-04-12 07:00:00 -2.4 4 Norte 8 Norte 0 -- -- 96
2019-04-12 06:00:00 -2.2 2 Este 10 Norte 0 -- -- 96
2019-04-12 05:00:00 -1.9 3 Sur 8 Este 0 -- -- 95
2019-04-12 04:00:00 -0.9 2 Sudoeste 10 Sudoeste 0 -- -- 96
2019-04-12 03:00:00 -0.7 3 Este 6 Sudoeste 0 -- -- 94
2019-04-12 02:00:00 0.6 2 Nordeste 5 Sudeste 0 -- -- 91
2019-04-12 01:00:00 1.5 3 Este 7 Nordeste 0 -- -- 88
2019-04-12 00:00:00 2.1 5 Norte 9 Nordeste 0 -- -- 87
2019-04-11 23:00:00 4 3 Nordeste 13 Nordeste 0 -- -- 80
2019-04-11 22:00:00 5.8 6 Nordeste 16 Nordeste 0 -- -- 73
2019-04-11 21:00:00 7.4 5 Norte 27 Noroeste 0 -- -- 57
2019-04-11 20:00:00 9.4 13 Norte 32 Noroeste 0 -- -- 49
2019-04-11 19:00:00 10.8 17 Noroeste 38 Noroeste 0 -- -- 45
2019-04-11 18:00:00 11.4 15 Noroeste 32 Noroeste 0 -- -- 45
2019-04-11 17:00:00 10.7 14 Noroeste 37 Noroeste 0 -- -- 49
2019-04-11 16:00:00 11.5 8 Noroeste 33 Noroeste 0 -- -- 49
2019-04-11 15:00:00 11.3 7 Norte 28 Norte 0 -- -- 43
2019-04-11 14:00:00 10.2 10 Norte 28 Norte 0 -- -- 43
2019-04-11 13:00:00 10.1 11 Norte 28 Noroeste 0 -- -- 46
2019-04-11 12:00:00 8.3 10 Norte 29 Norte 0 -- -- 54
2019-04-11 11:00:00 7.1 14 Norte 32 Norte 0 -- -- 59
2019-04-11 10:00:00 5.5 8 Norte 26 Norte 0 -- -- 73
2019-04-11 09:00:00 3 9 Noroeste 22 Noroeste 0 -- -- 87
2019-04-11 08:00:00 -0.8 3 Sudoeste 5 Sudeste 0 -- -- 96
2019-04-11 07:00:00 -0.6 0 Calma 8 Norte 0 -- -- 94
2019-04-11 06:00:00 1.2 4 Norte 18 Norte 0 -- -- 91
2019-04-11 05:00:00 -0.4 3 Sur 8 Norte 0 -- -- 97
2019-04-11 04:00:00 -0.9 2 Sur 5 Sudoeste 0 -- -- 96
2019-04-11 03:00:00 -0.5 3 Norte 8 Este 0 -- -- 95
2019-04-11 02:00:00 -0.1 3 Nordeste 6 Noroeste 0 -- -- 95
2019-04-11 01:00:00 0.5 2 Sudeste 7 Sudoeste 0 -- -- 91
2019-04-11 00:00:00 2.1 2 Oeste 10 Nordeste 0 -- -- 87
2019-04-10 23:00:00 4.1 5 Nordeste 11 Nordeste 0 -- -- 79
2019-04-10 22:00:00 4.9 2 Este 11 Noroeste 0 -- -- 80
2019-04-10 21:00:00 6.2 9 Noroeste 20 Noroeste 0.2 -- -- 77
2019-04-10 20:00:00 7.6 10 Noroeste 28 Norte 0 -- -- 67
2019-04-10 19:00:00 8.8 9 Norte 25 Norte 0 -- -- 58
2019-04-10 18:00:00 8 8 Nordeste 33 Norte 0 -- -- 66
2019-04-10 17:00:00 7.6 12 Nordeste 30 Nordeste 0.2 -- -- 68
2019-04-10 16:00:00 11 16 Norte 31 Norte 0 -- -- 46
2019-04-10 15:00:00 10 11 Noroeste 31 Noroeste 0 -- -- 51
2019-04-10 14:00:00 9.2 14 Norte 32 Noroeste 0 -- -- 57
2019-04-10 13:00:00 7.9 10 Noroeste 33 Noroeste 0 -- -- 72
2019-04-10 12:00:00 6.2 10 Norte 28 Norte 1.4 -- -- 84
2019-04-10 11:00:00 6 8 Noroeste 23 Noroeste 0 -- -- 74
2019-04-10 10:00:00 5.6 6 Oeste 24 Oeste 0 -- -- 78
2019-04-10 09:00:00 4.9 6 Oeste 18 Noroeste 0 -- -- 83
2019-04-10 08:00:00 3.5 2 Sur 12 Sudoeste 0.2 -- -- 94
2019-04-10 07:00:00 3.2 3 Sur 9 Sudoeste 0 -- -- 94
2019-04-10 06:00:00 3.2 4 Sudoeste 9 Sudoeste 0 -- -- 95
2019-04-10 05:00:00 2.9 4 Sudoeste 12 Sur 0 -- -- 97
2019-04-10 04:00:00 2.3 3 Sur 5 Sudoeste 0 -- -- 97
2019-04-10 03:00:00 2.4 3 Norte 6 Norte 0 -- -- 97
2019-04-10 02:00:00 1.9 3 Norte 9 Norte 0 -- -- 97
2019-04-10 01:00:00 1.4 3 Noroeste 8 Norte 0 -- -- 95
2019-04-10 00:00:00 3.1 0 Calma 7 Sur 0 -- -- 91
2019-04-09 23:00:00 4.6 0 Calma 7 Oeste 0 -- -- 91
2019-04-09 22:00:00 5.1 0 Calma 10 Oeste 0 -- -- 86
2019-04-09 21:00:00 5.4 3 Sudoeste 14 Sudoeste 0 -- -- 87
2019-04-09 20:00:00 6.4 8 Sudoeste 24 Sudoeste 0 -- -- 82
2019-04-09 19:00:00 6.9 11 Sur 16 Sur 0 -- -- 84
2019-04-09 18:00:00 5.6 6 Sudoeste 18 Sudoeste 1 -- -- 88
2019-04-09 17:00:00 4.7 6 Sudoeste 29 Sudoeste 0.6 -- -- 91
2019-04-09 16:00:00 4.2 18 Sudoeste 34 Sudoeste 1.2 -- -- 91
2019-04-09 15:00:00 8.9 14 Sudoeste 40 Sur 0 -- -- 76
2019-04-09 14:00:00 9.2 13 Sudoeste 30 Sudoeste 0.2 -- -- 73
2019-04-09 13:00:00 7.3 14 Sudoeste 34 Sur 0 -- -- 80
2019-04-09 12:00:00 5.8 12 Sudoeste 28 Sudoeste 0 -- -- 85
2019-04-09 11:00:00 5.2 11 Sudoeste 25 Sudoeste 0 -- -- 87
2019-04-09 10:00:00 4.6 9 Sudoeste 20 Sudoeste 0 -- -- 92
2019-04-09 09:00:00 3.2 4 Sudoeste 19 Sur 0 -- -- 98
2019-04-09 08:00:00 1.2 2 Sur 5 Nordeste 0 -- -- 99
2019-04-09 07:00:00 0.5 0 Calma 6 Norte 0 -- -- 99
2019-04-09 06:00:00 -0.2 0 Calma 5 Norte 0 -- -- 98
2019-04-09 05:00:00 0.3 2 Norte 6 Norte 0 -- -- 98
2019-04-09 04:00:00 1.5 4 Norte 7 Norte 0 -- -- 97
2019-04-09 03:00:00 2.8 3 Sudoeste 6 Oeste 0 -- -- 94
2019-04-09 02:00:00 4.3 2 Este 8 Sur 0.2 -- -- 94
2019-04-09 01:00:00 4.6 5 Sur 14 Sudoeste 0.2 -- -- 93
2019-04-09 00:00:00 4.8 4 Sur 17 Oeste 0.6 -- -- 94
2019-04-08 23:00:00 4.8 4 Norte 12 Nordeste 1 -- -- 93
2019-04-08 22:00:00 5.3 4 Este 15 Sudoeste 5.6 -- -- 91
2019-04-08 21:00:00 6.3 9 Sudoeste 25 Sudoeste 2.4 -- -- 88
2019-04-08 20:00:00 8.5 8 Sur 17 Sur 0 -- -- 68
2019-04-08 19:00:00 9.4 5 Sudoeste 10 Sudoeste 0 -- -- 71
2019-04-08 18:00:00 9 8 Sudoeste 34 Sur 0.4 -- -- 76
2019-04-08 17:00:00 10.3 11 Sudoeste 23 Sur 0 -- -- 74
2019-04-08 16:00:00 10 6 Sur 28 Oeste 1.4 -- -- 77
2019-04-08 15:00:00 9.4 9 Noroeste 32 Sudoeste 0.2 -- -- 81
2019-04-08 14:00:00 12.7 14 Sudoeste 34 Sudoeste 0 -- -- 68
2019-04-08 13:00:00 10.2 13 Sudoeste 31 Sudoeste 0 -- -- 79
2019-04-08 12:00:00 8.1 11 Sudoeste 28 Sudoeste 0 -- -- 87
2019-04-08 11:00:00 7.7 12 Sudoeste 26 Sudoeste 0 -- -- 93
2019-04-08 10:00:00 6.6 8 Sudoeste 18 Sudoeste 0 -- -- 96
2019-04-08 09:00:00 6 5 Sudoeste 13 Sudoeste 0.6 -- -- 97
2019-04-08 08:00:00 5.6 9 Sudoeste 21 Sudoeste 0.4 -- -- 98
2019-04-08 07:00:00 5.4 9 Sudoeste 17 Sudoeste 0.2 -- -- 98
2019-04-08 06:00:00 5.3 3 Sudoeste 12 Sur 0 -- -- 98
2019-04-08 05:00:00 5.1 8 Sur 17 Sudoeste 0 -- -- 97
2019-04-08 04:00:00 5 8 Sudoeste 19 Sudoeste 0.2 -- -- 97
2019-04-08 03:00:00 5 11 Sudoeste 20 Sudoeste 0 -- -- 96
2019-04-08 02:00:00 5 8 Sur 16 Sur 0 -- -- 94
2019-04-08 01:00:00 4.6 3 Sudoeste 15 Sudoeste 0 -- -- 94
2019-04-08 00:00:00 4.5 9 Sudoeste 18 Sudoeste 0.4 -- -- 93
2019-04-07 23:00:00 4.6 6 Sudoeste 16 Sudoeste 0.2 -- -- 90
2019-04-07 22:00:00 5.3 5 Sudoeste 18 Oeste 0 -- -- 84
2019-04-07 21:00:00 6.1 9 Sudoeste 35 Sudoeste 0 -- -- 76
2019-04-07 20:00:00 8.5 10 Sudoeste 27 Sudoeste 0 -- -- 57
2019-04-07 19:00:00 9.2 10 Sudoeste 28 Sur 0 -- -- 46
2019-04-07 18:00:00 9.8 14 Sudoeste 30 Sudoeste 0 -- -- 42
2019-04-07 17:00:00 9.6 10 Sudoeste 30 Sudoeste 0 -- -- 48
2019-04-07 16:00:00 10.3 10 Sudoeste 30 Sudoeste 0 -- -- 40
2019-04-07 15:00:00 10.1 10 Oeste 26 Sudoeste 0 -- -- 40
2019-04-07 14:00:00 8.7 9 Oeste 28 Sudoeste 0 -- -- 53
2019-04-07 13:00:00 8.2 9 Oeste 31 Norte 0 -- -- 55
2019-04-07 12:00:00 6 9 Oeste 31 Noroeste 0 -- -- 61
2019-04-07 11:00:00 5.9 9 Oeste 34 Oeste 0 -- -- 65
2019-04-07 10:00:00 4.2 9 Oeste 27 Oeste 0 -- -- 75
2019-04-07 09:00:00 2.6 8 Sudoeste 16 Sudoeste 0 -- -- 91
2019-04-07 08:00:00 1.5 6 Sudoeste 15 Sudoeste 0 -- -- 94
2019-04-07 07:00:00 1.5 6 Sudoeste 13 Sur 0 -- -- 94
2019-04-07 06:00:00 1.5 5 Sur 19 Sudoeste 0.2 -- -- 94
2019-04-07 05:00:00 1.5 5 Sudoeste 12 Sudoeste 0 -- -- 93
2019-04-07 04:00:00 0.6 3 Sur 12 Oeste 0 -- -- 94
2019-04-07 03:00:00 1 2 Oeste 6 Sur 0 -- -- 94
2019-04-07 02:00:00 0.6 3 Sudeste 10 Oeste 0 -- -- 94
2019-04-07 01:00:00 2.1 6 Sudoeste 20 Oeste 0 -- -- 91
2019-04-07 00:00:00 2.6 7 Sudoeste 16 Sur 0 -- -- 91
2019-04-06 23:00:00 2.6 8 Sudoeste 21 Sudoeste 0 -- -- 91
2019-04-06 22:00:00 2.7 6 Sudoeste 26 Sudoeste 0 -- -- 90
2019-04-06 21:00:00 3.9 6 Sudoeste 19 Sudoeste 0 -- -- 86
2019-04-06 20:00:00 4 8 Sudoeste 30 Sudoeste 0 -- -- 84
2019-04-06 19:00:00 4.9 12 Sudoeste 27 Sudoeste 0 -- -- 82
2019-04-06 18:00:00 5.7 14 Sudoeste 35 Sur 0.4 -- -- 82
2019-04-06 17:00:00 4.3 15 Sudoeste 36 Sur 0 -- -- 85
2019-04-06 16:00:00 4.1 10 Sur 33 Sur 0 -- -- 90
2019-04-06 15:00:00 4.3 17 Sudoeste 36 Sudoeste 1 -- -- 89
2019-04-06 14:00:00 4.1 10 Oeste 34 Sudoeste 0.2 -- -- 82
2019-04-06 13:00:00 4.4 9 Sudoeste 33 Sur 0 -- -- 82
2019-04-06 12:00:00 3.1 16 Sudoeste 32 Sudoeste 0 -- -- 88
2019-04-06 11:00:00 2.3 19 Sudoeste 36 Sudoeste 0 -- -- 86
2019-04-06 10:00:00 2 17 Sudoeste 32 Sur 0 -- -- 90
2019-04-06 09:00:00 2 15 Sudoeste 28 Sudoeste 0 -- -- 92
2019-04-06 08:00:00 1.1 10 Sudoeste 27 Sur 0.2 -- -- 94
2019-04-06 07:00:00 1 8 Sudoeste 26 Sudoeste 0.2 -- -- 95
2019-04-06 06:00:00 1.5 6 Sudoeste 22 Sudoeste 0.6 -- -- 95
2019-04-06 05:00:00 1.5 6 Oeste 21 Sudoeste 0.8 -- -- 95
2019-04-06 04:00:00 1.3 5 Sudoeste 13 Sudoeste 0.6 -- -- 96
2019-04-06 03:00:00 1.2 4 Sudoeste 12 Oeste 0.2 -- -- 96
2019-04-06 02:00:00 1 4 Oeste 14 Sudoeste 0.2 -- -- 96
2019-04-06 01:00:00 0.9 6 Oeste 14 Oeste 0.4 -- -- 97
2019-04-06 00:00:00 1.1 4 Sudoeste 13 Oeste 0.4 -- -- 97
2019-04-05 23:00:00 0.8 3 Sudoeste 10 Sudoeste 0 -- -- 97
2019-04-05 22:00:00 0.7 4 Sur 11 Sudoeste 0.4 -- -- 97
2019-04-05 21:00:00 0.7 2 Norte 7 Oeste 0.2 -- -- 97
2019-04-05 20:00:00 1.1 5 Sur 22 Noroeste 1.4 -- -- 94
2019-04-05 19:00:00 2.6 4 Nordeste 9 Nordeste 0.2 -- -- 95
2019-04-05 18:00:00 1.7 3 Sur 12 Sur 1 -- -- 95
2019-04-05 17:00:00 2.3 8 Sudoeste 28 Oeste 0.8 -- -- 92
2019-04-05 16:00:00 5.7 14 Sur 30 Sur 0 -- -- 82
2019-04-05 15:00:00 5.4 21 Sur 43 Sudoeste 0 -- -- 88
2019-04-05 14:00:00 3.3 10 Sudeste 28 Sur 0.6 -- -- 92
2019-04-05 13:00:00 3 14 Sur 33 Sudoeste 0.6 -- -- 91
2019-04-05 12:00:00 4.1 18 Sur 41 Sur 0 -- -- 88
2019-04-05 11:00:00 4.2 20 Sur 36 Sudoeste 0.2 -- -- 90
2019-04-05 10:00:00 4.1 19 Sur 35 Sur 0.4 -- -- 89
2019-04-05 09:00:00 2.9 14 Sur 27 Sur 0.2 -- -- 94
2019-04-05 08:00:00 2.4 9 Sudoeste 22 Sudoeste 0.8 -- -- 94
2019-04-05 07:00:00 2.6 11 Sudoeste 27 Sudoeste 0.8 -- -- 93
2019-04-05 06:00:00 2.6 12 Sur 26 Sudoeste 0.4 -- -- 94
2019-04-05 05:00:00 2.8 16 Sudoeste 36 Sur 0.2 -- -- 91
2019-04-05 04:00:00 4.8 15 Sudoeste 54 Sur 0 -- -- 70
2019-04-05 03:00:00 6.8 15 Sudoeste 37 Sur 0 -- -- 48
2019-04-05 02:00:00 1.9 3 Sudeste 6 Sudeste 0 -- -- 59
2019-04-05 01:00:00 0.7 2 Nordeste 5 Norte 0 -- -- 60
2019-04-05 00:00:00 0.9 2 Nordeste 6 Nordeste 0 -- -- 57
2019-04-04 23:00:00 1.1 2 Nordeste 6 Norte 0 -- -- 53
2019-04-04 22:00:00 2.6 2 Nordeste 5 Sur 0 -- -- 45
2019-04-04 21:00:00 6.4 4 Sudoeste 17 Sudoeste 0 -- -- 31
2019-04-04 20:00:00 8.3 8 Sudoeste 26 Sudoeste 0 -- -- 26
2019-04-04 19:00:00 9.6 10 Sudoeste 32 Sur 0 -- -- 24
2019-04-04 18:00:00 9.8 11 Sudoeste 31 Sudoeste 0 -- -- 24
2019-04-04 17:00:00 11.4 19 Sudoeste 37 Sudoeste 0 -- -- 24
2019-04-04 16:00:00 10.8 15 Sudoeste 31 Sur 0 -- -- 23
2019-04-04 15:00:00 10.4 12 Sur 32 Sudoeste 0 -- -- 26
2019-04-04 14:00:00 9.7 4 Norte 22 Norte 0 -- -- 26
2019-04-04 13:00:00 8.7 9 Oeste 21 Oeste 0 -- -- 30
2019-04-04 12:00:00 6.8 7 Noroeste 24 Oeste 0 -- -- 39
2019-04-04 11:00:00 4.6 8 Sudoeste 25 Oeste 0 -- -- 49
2019-04-04 10:00:00 1.9 6 Oeste 15 Noroeste 0 -- -- 60
2019-04-04 09:00:00 -4.4 0 Calma 3 Sudeste 0 -- -- 91
2019-04-04 08:00:00 -7.7 0 Calma 8 Norte 0 -- -- 91
2019-04-04 07:00:00 -7.3 2 Norte 5 Norte 0 -- -- 90
2019-04-04 06:00:00 -6.3 0 Calma 6 Nordeste 0 -- -- 89
2019-04-04 05:00:00 -5.3 4 Nordeste 9 Norte 0 -- -- 87
2019-04-04 04:00:00 -2.8 2 Noroeste 9 Noroeste 0 -- -- 81
2019-04-04 03:00:00 -2.4 7 Noroeste 13 Noroeste 0 -- -- 84
2019-04-04 02:00:00 -3.3 0 Calma 7 Noroeste 0 -- -- 86
2019-04-04 01:00:00 -2.6 2 Este 5 Nordeste 0 -- -- 85
2019-04-04 00:00:00 -1.6 0 Calma 5 Nordeste 0 -- -- 83
2019-04-03 23:00:00 0 2 Este 6 Norte 0 -- -- 79
2019-04-03 22:00:00 2 2 Sur 6 Nordeste 0 -- -- 72
2019-04-03 21:00:00 4.2 3 Sur 27 Norte 0 -- -- 64
2019-04-03 20:00:00 5.5 12 Norte 32 Norte 0 -- -- 60
2019-04-03 19:00:00 7.5 15 Noroeste 39 Noroeste 0 -- -- 45
2019-04-03 18:00:00 10.5 10 Oeste 39 Oeste 0 -- -- 32
2019-04-03 17:00:00 10.6 12 Oeste 36 Noroeste 0 -- -- 35
2019-04-03 16:00:00 8.8 9 Oeste 31 Oeste 0 -- -- 39
2019-04-03 15:00:00 10.4 13 Oeste 39 Oeste 0 -- -- 40
2019-04-03 14:00:00 7.9 13 Noroeste 39 Noroeste 0 -- -- 58
2019-04-03 13:00:00 9.4 8 Oeste 35 Noroeste 0 -- -- 57
2019-04-03 12:00:00 9.5 6 Sudoeste 18 Sudoeste 0 -- -- 59
2019-04-03 11:00:00 8.8 8 Sudoeste 20 Oeste 0 -- -- 67
2019-04-03 10:00:00 7.2 5 Oeste 11 Norte 0 -- -- 83
2019-04-03 09:00:00 4.4 0 Calma 6 Norte 0 -- -- 96
2019-04-03 08:00:00 3.6 0 Calma 4 Nordeste 0 -- -- 97
2019-04-03 07:00:00 3.6 2 Norte 6 Nordeste 0 -- -- 98
2019-04-03 06:00:00 3.3 0 Calma 4 Nordeste 0 -- -- 97
2019-04-03 05:00:00 2.9 2 Sudoeste 4 Norte 0 -- -- 97
2019-04-03 04:00:00 3.3 2 Nordeste 6 Nordeste 0 -- -- 97
2019-04-03 03:00:00 2.8 0 Calma 9 Norte 0 -- -- 95
2019-04-03 02:00:00 4.2 2 Sur 10 Sudoeste 0 -- -- 96
2019-04-03 01:00:00 4.8 8 Sudoeste 12 Sur 0 -- -- 94
2019-04-03 00:00:00 6.2 2 Nordeste 8 Sur 0 -- -- 92
2019-04-02 23:00:00 7.3 4 Sur 9 Oeste 0 -- -- 88
2019-04-02 22:00:00 7 2 Sudeste 7 Sudeste 0 -- -- 90
2019-04-02 21:00:00 7.5 0 Calma 6 Sur 0 -- -- 86
2019-04-02 20:00:00 8.8 3 Oeste 26 Sudoeste 0.6 -- -- 81
2019-04-02 19:00:00 12.2 5 Oeste 23 Sudoeste 0.4 -- -- 63
2019-04-02 18:00:00 14.5 10 Sudoeste 27 Sudoeste 0 -- -- 45
2019-04-02 17:00:00 14.6 14 Sudoeste 28 Sudoeste 0 -- -- 46
2019-04-02 16:00:00 15.1 8 Sudoeste 25 Sudoeste 0 -- -- 44
2019-04-02 15:00:00 14 6 Oeste 22 Sur 0 -- -- 54
2019-04-02 14:00:00 14.6 6 Oeste 21 Sudoeste 0 -- -- 53
2019-04-02 13:00:00 13.5 8 Sudoeste 18 Sur 0 -- -- 65
2019-04-02 12:00:00 10.8 8 Sudoeste 14 Sudoeste 0 -- -- 75
2019-04-02 11:00:00 9.3 4 Sudoeste 12 Sudoeste 0 -- -- 81
2019-04-02 10:00:00 7.4 3 Oeste 7 Oeste 0 -- -- 91
2019-04-02 09:00:00 5.9 2 Oeste 6 Oeste 0 -- -- 97
2019-04-02 08:00:00 4.4 0 Calma 4 Nordeste 0 -- -- 97
2019-04-02 07:00:00 4.4 3 Nordeste 7 Nordeste 0 -- -- 97
2019-04-02 06:00:00 3.5 0 Calma 4 Norte 0 -- -- 94
2019-04-02 05:00:00 5.1 2 Sur 6 Sudoeste 0 -- -- 92
2019-04-02 04:00:00 6.8 4 Sudoeste 9 Sur 0 -- -- 92
2019-04-02 03:00:00 7.9 4 Sudoeste 12 Sudoeste 0.2 -- -- 92
2019-04-02 02:00:00 7.5 3 Sudoeste 6 Sudoeste 0 -- -- 93
2019-04-02 01:00:00 7.6 2 Sudeste 7 Este 1.4 -- -- 92
2019-04-02 00:00:00 7.2 3 Sur 5 Sur 0 -- -- 89
2019-04-01 23:00:00 6.7 0 Calma 4 Norte 0 -- -- 87
2019-04-01 22:00:00 7.8 0 Calma 6 Nordeste 0 -- -- 85
2019-04-01 21:00:00 8.9 0 Calma 17 Sudeste 0 -- -- 79
2019-04-01 20:00:00 10.8 10 Sur 18 Sur 0 -- -- 74
2019-04-01 19:00:00 11.7 10 Sudeste 21 Sudeste 0 -- -- 72
2019-04-01 18:00:00 12.5 9 Sur 20 Sur 0 -- -- 67
2019-04-01 17:00:00 12.5 10 Sudoeste 20 Sur 0 -- -- 61
2019-04-01 16:00:00 11.9 10 Sudoeste 20 Sudoeste 0 -- -- 65
2019-04-01 15:00:00 11.4 8 Sudoeste 15 Sudoeste 0 -- -- 69
2019-04-01 14:00:00 11.2 5 Oeste 17 Oeste 0 -- -- 73
2019-04-01 13:00:00 11 7 Oeste 21 Sudoeste 0 -- -- 76
2019-04-01 12:00:00 11.3 6 Sudeste 16 Sudeste 0 -- -- 71
2019-04-01 11:00:00 9.8 6 Sur 13 Sudeste 0 -- -- 78
2019-04-01 10:00:00 7.7 4 Nordeste 9 Norte 0 -- -- 89
2019-04-01 09:00:00 6.2 5 Norte 9 Nordeste 0 -- -- 95
2019-04-01 08:00:00 5.6 3 Nordeste 8 Norte 0 -- -- 97
2019-04-01 07:00:00 5.4 5 Nordeste 10 Norte 0 -- -- 97
2019-04-01 06:00:00 5.3 4 Nordeste 9 Nordeste 0.2 -- -- 97
2019-04-01 05:00:00 5.2 6 Nordeste 12 Norte 0 -- -- 97
2019-04-01 04:00:00 5.3 6 Nordeste 14 Nordeste 0 -- -- 95
2019-04-01 03:00:00 5.1 8 Norte 16 Norte 0 -- -- 97
2019-04-01 02:00:00 5.1 8 Nordeste 18 Nordeste 0 -- -- 97
2019-04-01 01:00:00 5.1 9 Nordeste 17 Nordeste 0 -- -- 96
2019-04-01 00:00:00 5.3 9 Nordeste 17 Nordeste 0 -- -- 94
2019-03-31 23:00:00 5.5 7 Nordeste 18 Norte 0 -- -- 93
2019-03-31 22:00:00 5.4 11 Nordeste 20 Norte 0 -- -- 93
2019-03-31 21:00:00 5.7 7 Nordeste 19 Nordeste 0 -- -- 92
2019-03-31 20:00:00 6.4 8 Nordeste 20 Nordeste 0.2 -- -- 90
2019-03-31 19:00:00 6.8 8 Nordeste 30 Nordeste 0 -- -- 87
2019-03-31 18:00:00 7.3 13 Nordeste 30 Nordeste 0.4 -- -- 87
2019-03-31 17:00:00 7.7 14 Nordeste 29 Nordeste 0.4 -- -- 85
2019-03-31 16:00:00 7.7 7 Nordeste 17 Nordeste 0.4 -- -- 83
2019-03-31 15:00:00 9.3 7 Nordeste 16 Nordeste 0 -- -- 76
2019-03-31 14:00:00 9.9 10 Nordeste 20 Nordeste 0 -- -- 69
2019-03-31 13:00:00 11.1 4 Este 27 Este 0 -- -- 52
2019-03-31 12:00:00 10.3 9 Nordeste 20 Norte 0 -- -- 54
2019-03-31 11:00:00 9.4 6 Nordeste 18 Nordeste 0 -- -- 56
2019-03-31 10:00:00 8.4 8 Norte 17 Nordeste 0 -- -- 64
2019-03-31 09:00:00 6.4 7 Nordeste 17 Norte 0 -- -- 72
2019-03-31 08:00:00 5.5 7 Nordeste 18 Norte 0 -- -- 73
2019-03-31 07:00:00 5.2 5 Nordeste 14 Nordeste 0 -- -- 72
2019-03-31 06:00:00 4.1 5 Nordeste 11 Nordeste 0 -- -- 77
2019-03-31 05:00:00 2.4 6 Nordeste 10 Nordeste 0 -- -- 74
2019-03-31 03:00:00 2.6 4 Nordeste 9 Nordeste 0 -- -- 70
2019-03-31 01:00:00 3.7 3 Nordeste 9 Este 0 -- -- 62
2019-03-31 00:00:00 6.2 2 Este 13 Nordeste 0 -- -- 51
2019-03-30 23:00:00 9.1 6 Nordeste 19 Nordeste 0 -- -- 44
2019-03-30 22:00:00 10.6 9 Nordeste 26 Este 0 -- -- 39
2019-03-30 21:00:00 11.2 12 Nordeste 26 Nordeste 0 -- -- 33
2019-03-30 20:00:00 11.9 9 Nordeste 26 Nordeste 0 -- -- 32
2019-03-30 19:00:00 13.5 12 Nordeste 30 Nordeste 0 -- -- 28
2019-03-30 18:00:00 15.5 13 Nordeste 26 Nordeste 0 -- -- 23
2019-03-30 17:00:00 16.8 5 Sudoeste 17 Sur 0 -- -- 18
2019-03-30 16:00:00 17.2 5 Este 22 Sudeste 0 -- -- 20
2019-03-30 15:00:00 17.7 7 Sur 26 Sudeste 0 -- -- 20
2019-03-30 14:00:00 16.7 10 Sudoeste 31 Sudoeste 0 -- -- 23
2019-03-30 13:00:00 16.6 5 Oeste 23 Sudoeste 0 -- -- 24
2019-03-30 12:00:00 14.6 7 Oeste 18 Este 0 -- -- 30
2019-03-30 11:00:00 11.8 4 Oeste 14 Sur 0 -- -- 34
2019-03-30 10:00:00 9 5 Sur 14 Sudoeste 0 -- -- 40
2019-03-30 09:00:00 3.6 2 Este 5 Nordeste 0 -- -- 67
2019-03-30 08:00:00 -2 2 Nordeste 6 Nordeste 0 -- -- 86
2019-03-30 07:00:00 -4.8 2 Nordeste 8 Norte 0 -- -- 86
2019-03-30 06:00:00 -3.9 5 Nordeste 9 Nordeste 0 -- -- 86
2019-03-30 05:00:00 -3.6 5 Norte 8 Norte 0 -- -- 85
2019-03-30 04:00:00 -3.1 5 Norte 8 Nordeste 0 -- -- 80
2019-03-30 03:00:00 -2.5 0 Calma 6 Norte 0 -- -- 78
2019-03-30 02:00:00 -1.6 2 Nordeste 6 Norte 0 -- -- 74
2019-03-30 01:00:00 -0.7 3 Nordeste 8 Norte 0 -- -- 68
2019-03-30 00:00:00 0.3 3 Nordeste 8 Norte 0 -- -- 64
2019-03-29 23:00:00 2.1 4 Nordeste 8 Norte 0 -- -- 61
2019-03-29 22:00:00 3.6 3 Nordeste 13 Norte 0 -- -- 50
2019-03-29 21:00:00 5.1 6 Norte 13 Norte 0 -- -- 43
2019-03-29 20:00:00 8.3 3 Norte 7 Sudeste 0 -- -- 33
2019-03-29 19:00:00 13.2 3 Sudoeste 21 Sudoeste 0 -- -- 24
2019-03-29 18:00:00 15.4 10 Sudoeste 28 Sur 0 -- -- 21
2019-03-29 17:00:00 16.1 13 Sur 34 Sur 0 -- -- 18
2019-03-29 16:00:00 16.6 13 Sur 34 Sudoeste 0 -- -- 19
2019-03-29 15:00:00 16.4 13 Sudoeste 39 Sur 0 -- -- 19
2019-03-29 14:00:00 16.1 12 Sur 33 Sudoeste 0 -- -- 20
2019-03-29 13:00:00 15.3 13 Sudoeste 32 Sudoeste 0 -- -- 21
2019-03-29 12:00:00 14.6 9 Sur 27 Sur 0 -- -- 25
2019-03-29 11:00:00 12.9 12 Sur 28 Sudoeste 0 -- -- 28
2019-03-29 10:00:00 10.1 11 Sur 20 Sur 0 -- -- 34
2019-03-29 09:00:00 4.2 3 Sur 8 Sur 0 -- -- 61
2019-03-29 08:00:00 -2 4 Nordeste 8 Nordeste 0 -- -- 78
2019-03-29 07:00:00 -4.6 5 Norte 8 Norte 0 -- -- 82
2019-03-29 06:00:00 -3.9 4 Nordeste 6 Nordeste 0 -- -- 80
2019-03-29 05:00:00 -3.1 3 Nordeste 5 Nordeste 0 -- -- 78
2019-03-29 04:00:00 -2.7 2 Nordeste 7 Nordeste 0 -- -- 77
2019-03-29 03:00:00 -1.6 2 Nordeste 4 Norte 0 -- -- 75
2019-03-29 02:00:00 -0.1 2 Nordeste 6 Norte 0 -- -- 66
2019-03-29 01:00:00 1.7 2 Este 10 Nordeste 0 -- -- 64
2019-03-29 00:00:00 3.7 4 Este 12 Norte 0 -- -- 62
2019-03-28 23:00:00 3.8 6 Nordeste 12 Norte 0 -- -- 55
2019-03-28 22:00:00 4.4 6 Nordeste 11 Nordeste 0 -- -- 47
2019-03-28 21:00:00 6.3 3 Nordeste 8 Este 0 -- -- 37
2019-03-28 20:00:00 9.1 2 Nordeste 14 Nordeste 0 -- -- 28
2019-03-28 19:00:00 14 5 Nordeste 19 Nordeste 0 -- -- 22
2019-03-28 18:00:00 16.3 10 Nordeste 22 Nordeste 0 -- -- 17
2019-03-28 17:00:00 18.1 5 Sudoeste 17 Sudoeste 0 -- -- 16
2019-03-28 16:00:00 18.3 5 Oeste 19 Nordeste 0 -- -- 16
2019-03-28 15:00:00 17.9 4 Sudeste 15 Sudoeste 0 -- -- 16
2019-03-28 14:00:00 17.3 8 Sur 18 Sudoeste 0 -- -- 15
2019-03-28 13:00:00 16.5 9 Sudoeste 18 Sur 0 -- -- 18
2019-03-28 12:00:00 14.5 7 Sudoeste 22 Sudoeste 0 -- -- 22
2019-03-28 11:00:00 12.4 6 Sudoeste 16 Sur 0 -- -- 24
2019-03-28 10:00:00 9.4 8 Sur 13 Sur 0 -- -- 30
2019-03-28 09:00:00 3.3 3 Nordeste 9 Norte 0 -- -- 54
2019-03-28 08:00:00 -2.3 6 Nordeste 10 Nordeste 0 -- -- 74
2019-03-28 07:00:00 -5.5 4 Nordeste 10 Norte 0 -- -- 79
2019-03-28 06:00:00 -5.1 5 Nordeste 8 Norte 0 -- -- 74
2019-03-28 05:00:00 -4.3 4 Nordeste 8 Nordeste 0 -- -- 70
2019-03-28 04:00:00 -3.5 6 Nordeste 9 Norte 0 -- -- 67
2019-03-28 03:00:00 -2.6 2 Nordeste 6 Norte 0 -- -- 64
2019-03-28 02:00:00 -1.2 2 Nordeste 6 Nordeste 0 -- -- 56
2019-03-28 01:00:00 1.9 0 Calma 13 Nordeste 0 -- -- 46
2019-03-28 00:00:00 5.2 6 Este 21 Nordeste 0 -- -- 36
2019-03-27 23:00:00 5.4 6 Este 14 Nordeste 0 -- -- 33
2019-03-27 22:00:00 6.5 5 Nordeste 14 Nordeste 0 -- -- 32
2019-03-27 21:00:00 6.9 5 Nordeste 9 Nordeste 0 -- -- 29
2019-03-27 20:00:00 10.2 5 Nordeste 15 Nordeste 0 -- -- 22
2019-03-27 19:00:00 12.8 5 Norte 22 Nordeste 0 -- -- 21
2019-03-27 18:00:00 15.6 10 Nordeste 28 Nordeste 0 -- -- 16
2019-03-27 17:00:00 16.5 13 Nordeste 28 Norte 0 -- -- 15
2019-03-27 16:00:00 17.1 10 Nordeste 28 Nordeste 0 -- -- 14
2019-03-27 15:00:00 16.8 9 Nordeste 27 Este 0 -- -- 14
2019-03-27 14:00:00 16.1 9 Nordeste 26 Este 0 -- -- 14
2019-03-27 13:00:00 15.5 9 Nordeste 23 Nordeste 0 -- -- 18
2019-03-27 12:00:00 14.5 7 Nordeste 16 Norte 0 -- -- 21
2019-03-27 11:00:00 11.7 7 Nordeste 18 Nordeste 0 -- -- 23
2019-03-27 10:00:00 8.4 5 Nordeste 15 Nordeste 0 -- -- 32
2019-03-27 09:00:00 3.7 3 Nordeste 7 Nordeste 0 -- -- 47
2019-03-27 08:00:00 -4 0 Calma 4 Nordeste 0 -- -- 71
2019-03-27 07:00:00 -6.2 0 Calma 10 Nordeste 0 -- -- 76
2019-03-27 06:00:00 -5.4 4 Nordeste 9 Norte 0 -- -- 72
2019-03-27 05:00:00 -4.5 5 Nordeste 9 Nordeste 0 -- -- 70
2019-03-27 04:00:00 -3.6 7 Nordeste 10 Nordeste 0 -- -- 65
2019-03-27 03:00:00 -3.4 3 Norte 9 Sur 0 -- -- 65
2019-03-27 02:00:00 -1.9 3 Noroeste 7 Norte 0 -- -- 60
2019-03-27 01:00:00 1.4 2 Sur 18 Este 0 -- -- 46
2019-03-27 00:00:00 3.7 9 Este 19 Nordeste 0 -- -- 39
2019-03-26 23:00:00 4.1 8 Este 23 Norte 0 -- -- 36
2019-03-26 22:00:00 5.6 9 Nordeste 31 Nordeste 0 -- -- 33
2019-03-26 21:00:00 7.2 9 Nordeste 22 Nordeste 0 -- -- 27
2019-03-26 20:00:00 7.2 2 Nordeste 14 Nordeste 0 -- -- 27
2019-03-26 19:00:00 12.2 9 Nordeste 35 Este 0 -- -- 18
2019-03-26 18:00:00 14.4 16 Nordeste 36 Nordeste 0 -- -- 15
2019-03-26 17:00:00 15.1 18 Nordeste 38 Nordeste 0 -- -- 12
2019-03-26 16:00:00 15.9 15 Nordeste 34 Nordeste 0 -- -- 15
2019-03-26 15:00:00 15.6 14 Nordeste 35 Nordeste 0 -- -- 22
2019-03-26 14:00:00 14.8 16 Nordeste 35 Este 0 -- -- 25
2019-03-26 13:00:00 13.8 14 Nordeste 30 Nordeste 0 -- -- 33
2019-03-26 12:00:00 13.1 14 Nordeste 28 Nordeste 0 -- -- 36
2019-03-26 11:00:00 10.9 12 Nordeste 28 Nordeste 0 -- -- 41
2019-03-26 10:00:00 7.9 14 Nordeste 27 Nordeste 0 -- -- 50
2019-03-26 09:00:00 5.6 11 Nordeste 26 Nordeste 0 -- -- 58
2019-03-26 08:00:00 2.9 7 Nordeste 14 Este 0 -- -- 70
2019-03-26 07:00:00 1.2 6 Nordeste 21 Nordeste 0 -- -- 74
2019-03-26 06:00:00 -0.3 5 Nordeste 9 Este 0 -- -- 81
2019-03-26 05:00:00 0 4 Este 9 Este 0 -- -- 81
2019-03-26 04:00:00 1.9 6 Nordeste 19 Nordeste 0 -- -- 78
2019-03-26 03:00:00 2.5 8 Nordeste 28 Nordeste 0 -- -- 76
2019-03-26 02:00:00 3.1 10 Nordeste 29 Nordeste 0 -- -- 73
2019-03-26 01:00:00 3.4 9 Nordeste 33 Nordeste 0 -- -- 70
2019-03-26 00:00:00 4 11 Nordeste 25 Nordeste 0 -- -- 67
2019-03-25 23:00:00 4.8 10 Nordeste 34 Nordeste 0 -- -- 59
2019-03-25 22:00:00 5.9 10 Nordeste 33 Norte 0 -- -- 52
2019-03-25 21:00:00 7.6 14 Nordeste 33 Nordeste 0 -- -- 42
2019-03-25 20:00:00 8.9 13 Nordeste 37 Nordeste 0 -- -- 40
2019-03-25 19:00:00 11.1 13 Nordeste 33 Nordeste 0 -- -- 32
2019-03-25 18:00:00 14.1 17 Nordeste 36 Norte 0 -- -- 19
2019-03-25 17:00:00 15.8 14 Nordeste 30 Nordeste 0 -- -- 22
2019-03-25 16:00:00 16.6 12 Nordeste 32 Norte 0 -- -- 19
2019-03-25 15:00:00 16.5 13 Nordeste 34 Nordeste 0 -- -- 21
2019-03-25 14:00:00 16 14 Nordeste 36 Nordeste 0 -- -- 18
2019-03-25 13:00:00 15.6 15 Nordeste 30 Nordeste 0 -- -- 24
2019-03-25 12:00:00 14.7 13 Nordeste 32 Nordeste 0 -- -- 25
2019-03-25 11:00:00 13.3 14 Nordeste 31 Norte 0 -- -- 33
2019-03-25 10:00:00 11 14 Nordeste 33 Nordeste 0 -- -- 43
2019-03-25 09:00:00 9.3 10 Nordeste 23 Nordeste 0 -- -- 48
2019-03-25 08:00:00 2.7 6 Este 12 Este 0 -- -- 79
2019-03-25 07:00:00 -3.5 0 Calma 5 Este 0 -- -- 83
2019-03-25 06:00:00 -2.9 2 Nordeste 8 Norte 0 -- -- 80
2019-03-25 05:00:00 -2.1 3 Nordeste 8 Nordeste 0 -- -- 80
2019-03-25 04:00:00 -1.2 4 Nordeste 6 Nordeste 0 -- -- 77
2019-03-25 03:00:00 -0.1 3 Norte 7 Norte 0 -- -- 73
2019-03-25 02:00:00 1.7 4 Norte 7 Norte 0 -- -- 68
2019-03-25 01:00:00 4.4 0 Calma 11 Sur 0 -- -- 57
2019-03-25 00:00:00 6.7 3 Sudeste 13 Nordeste 0 -- -- 50